Time;durP1;ratioP1;P1;durP2;ratioP2;P2;SDS_P1;SDS_P2;PMS_P1;PMS_P2;Temp;Humidity;BMP_temperature;BMP_pressure;BME280_temperature;BME280_humidity;BME280_pressure;Samples;Min_cycle;Max_cycle;Signal;HPM_P1;HPM_P2
2023/08/09 00:01:18;;;;;;;;;;;20.10;99.90;;;;;;5013480;28;20394;-70
2023/08/09 00:03:45;;;;;;;;;;;20.00;99.90;;;;;;4996272;28;20351;-70
2023/08/09 00:06:12;;;;;;;;;;;20.10;99.90;;;;;;5013714;28;19979;-71
2023/08/09 00:08:38;;;;;;;;;;;20.20;99.90;;;;;;5013419;28;19913;-70
2023/08/09 00:11:06;;;;;;;;;;;20.40;99.90;;;;;;5014220;28;19952;-71
2023/08/09 00:13:32;;;;;;;;;;;21.10;99.90;;;;;;4993436;28;19909;-73
2023/08/09 00:15:59;;;;;;;;;;;21.70;99.90;;;;;;5012179;28;19917;-72
2023/08/09 00:18:26;;;;;;;;;;;22.20;99.90;;;;;;5012159;28;20039;-71
2023/08/09 00:20:52;;;;;;;;;;;22.20;99.90;;;;;;4993724;28;19913;-72
2023/08/09 00:23:21;;;;;;;;;;;22.00;99.90;;;;;;4994327;28;19913;-72
2023/08/09 00:25:48;;;;;;;;;;;22.20;99.90;;;;;;5012015;28;19905;-72
2023/08/09 00:28:14;;;;;;;;;;;21.50;99.90;;;;;;5010659;28;20004;-72
2023/08/09 00:30:41;;;;;;;;;;;21.30;99.90;;;;;;5011925;28;19909;-72
2023/08/09 00:33:08;;;;;;;;;;;21.10;99.90;;;;;;5012036;28;20371;-72
2023/08/09 00:35:34;;;;;;;;;;;21.60;99.90;;;;;;5011182;28;20369;-72
2023/08/09 00:38:01;;;;;;;;;;;22.20;99.90;;;;;;5011876;28;19960;-72
2023/08/09 00:40:28;;;;;;;;;;;21.90;99.90;;;;;;5011577;28;19910;-71
2023/08/09 00:42:54;;;;;;;;;;;22.20;99.90;;;;;;5011462;28;19905;-72
2023/08/09 00:45:21;;;;;;;;;;;22.30;99.90;;;;;;5012031;28;19916;-72
2023/08/09 00:47:48;;;;;;;;;;;22.10;99.90;;;;;;5011277;28;19972;-72
2023/08/09 00:50:15;;;;;;;;;;;22.40;99.90;;;;;;4993106;28;19975;-72
2023/08/09 00:52:42;;;;;;;;;;;22.20;99.90;;;;;;4994170;28;20468;-72
2023/08/09 00:55:09;;;;;;;;;;;22.30;99.90;;;;;;5011033;28;19913;-71
2023/08/09 00:57:35;;;;;;;;;;;22.30;99.90;;;;;;5011247;28;20355;-71
2023/08/09 01:00:04;;;;;;;;;;;22.20;99.90;;;;;;5011041;28;19960;-71
2023/08/09 01:02:31;;;;;;;;;;;22.40;99.90;;;;;;5011931;28;19905;-72
2023/08/09 01:04:58;;;;;;;;;;;22.50;99.90;;;;;;5011773;28;20418;-70
2023/08/09 01:07:25;;;;;;;;;;;21.90;99.90;;;;;;5015248;28;20441;-72
2023/08/09 01:09:57;;;;;;;;;;;22.40;99.90;;;;;;5014765;28;20004;-71
2023/08/09 01:12:26;;;;;;;;;;;22.30;99.90;;;;;;4997982;28;19905;-71
2023/08/09 01:14:57;;;;;;;;;;;22.10;99.90;;;;;;5016679;28;20373;-72
2023/08/09 01:17:26;;;;;;;;;;;22.40;99.90;;;;;;4997427;28;19918;-71
2023/08/09 01:19:56;;;;;;;;;;;22.30;99.90;;;;;;5014718;28;19920;-70
2023/08/09 01:22:31;;;;;;;;;;;22.40;99.90;;;;;;5014759;28;19948;-71
2023/08/09 01:25:02;;;;;;;;;;;22.80;99.90;;;;;;5014762;28;19905;-71
2023/08/09 01:27:30;;;;;;;;;;;22.80;99.90;;;;;;5014486;28;19910;-71
2023/08/09 01:29:57;;;;;;;;;;;22.90;99.90;;;;;;5014314;28;20321;-72
2023/08/09 01:32:28;;;;;;;;;;;22.90;99.90;;;;;;5014113;28;20377;-71
2023/08/09 01:34:54;;;;;;;;;;;22.90;99.90;;;;;;5014383;28;19929;-72
2023/08/09 01:37:21;;;;;;;;;;;23.10;99.90;;;;;;4995897;28;19913;-71
2023/08/09 01:39:50;;;;;;;;;;;23.00;99.90;;;;;;5013931;28;19917;-70
2023/08/09 01:42:17;;;;;;;;;;;22.80;99.90;;;;;;5013774;28;20003;-71
2023/08/09 01:44:44;;;;;;;;;;;23.10;99.90;;;;;;5014510;28;20032;-71
2023/08/09 01:47:11;;;;;;;;;;;23.40;99.90;;;;;;5014219;28;19909;-70
2023/08/09 01:49:44;;;;;;;;;;;24.00;99.90;;;;;;5013195;28;19910;-69
2023/08/09 01:52:11;;;;;;;;;;;23.70;99.90;;;;;;5014515;28;20416;-69
2023/08/09 01:54:38;;;;;;;;;;;23.20;99.90;;;;;;5014168;28;19912;-70
2023/08/09 01:57:04;;;;;;;;;;;22.90;99.90;;;;;;5013608;28;19996;-70
2023/08/09 01:59:31;;;;;;;;;;;22.80;99.90;;;;;;5013818;28;19968;-70
2023/08/09 02:01:58;;;;;;;;;;;22.70;99.90;;;;;;5013647;28;19995;-70
2023/08/09 02:04:25;;;;;;;;;;;23.40;99.90;;;;;;5013061;28;19909;-70
2023/08/09 02:06:52;;;;;;;;;;;23.40;99.90;;;;;;5013784;28;19970;-70
2023/08/09 02:09:18;;;;;;;;;;;23.70;99.90;;;;;;5013895;28;20044;-70
2023/08/09 02:11:45;;;;;;;;;;;24.10;99.90;;;;;;5013544;28;20050;-71
2023/08/09 02:14:12;;;;;;;;;;;24.30;99.30;;;;;;4996445;28;20521;-71
2023/08/09 02:16:40;;;;;;;;;;;24.20;99.90;;;;;;5013331;28;20397;-70
2023/08/09 02:19:09;;;;;;;;;;;24.20;99.90;;;;;;5012989;28;20035;-70
2023/08/09 02:21:39;;;;;;;;;;;23.20;99.90;;;;;;4996224;28;19920;-71
2023/08/09 02:24:06;;;;;;;;;;;23.30;99.90;;;;;;5013325;28;19920;-70
2023/08/09 02:26:33;;;;;;;;;;;23.60;99.90;;;;;;5015166;28;19913;-71
2023/08/09 02:29:03;;;;;;;;;;;23.50;99.90;;;;;;5015235;28;20485;-71
2023/08/09 02:31:31;;;;;;;;;;;23.40;99.90;;;;;;4997484;28;19909;-70
2023/08/09 02:33:58;;;;;;;;;;;23.60;99.30;;;;;;5013931;28;20005;-70
2023/08/09 02:36:25;;;;;;;;;;;23.70;97.10;;;;;;5017619;28;19987;-71
2023/08/09 02:38:52;;;;;;;;;;;24.00;96.80;;;;;;5015998;28;19917;-70
2023/08/09 02:41:21;;;;;;;;;;;23.90;96.00;;;;;;5014323;28;19957;-70
2023/08/09 02:43:48;;;;;;;;;;;24.10;94.30;;;;;;5014416;28;19994;-70
2023/08/09 02:46:15;;;;;;;;;;;24.70;91.60;;;;;;5017637;28;19912;-70
2023/08/09 02:48:42;;;;;;;;;;;24.40;91.60;;;;;;5015863;28;19909;-70
2023/08/09 02:51:08;;;;;;;;;;;24.00;89.40;;;;;;5015643;28;19913;-72
2023/08/09 02:53:56;;;;;;;;;;;22.70;92.00;;;;;;5014875;28;19920;-71
2023/08/09 02:56:23;;;;;;;;;;;22.90;96.30;;;;;;5014802;28;19912;-70
2023/08/09 02:58:50;;;;;;;;;;;23.70;93.40;;;;;;5014619;28;19963;-71
2023/08/09 03:01:16;;;;;;;;;;;24.00;91.50;;;;;;5014585;28;19964;-70
2023/08/09 03:03:43;;;;;;;;;;;24.10;90.30;;;;;;5015045;28;19960;-70
2023/08/09 03:06:10;;;;;;;;;;;24.10;92.60;;;;;;5013619;28;20008;-69
2023/08/09 03:08:36;;;;;;;;;;;24.30;89.40;;;;;;5014739;28;19972;-69
2023/08/09 03:11:03;;;;;;;;;;;24.10;84.70;;;;;;5013923;28;19953;-70
2023/08/09 03:13:30;;;;;;;;;;;23.80;90.20;;;;;;5013573;28;19924;-70
2023/08/09 03:15:56;;;;;;;;;;;24.00;90.20;;;;;;5014465;28;20025;-71
2023/08/09 03:18:23;;;;;;;;;;;24.50;86.30;;;;;;5014610;28;20381;-71
2023/08/09 03:20:50;;;;;;;;;;;24.20;82.80;;;;;;4996793;28;20370;-71
2023/08/09 03:23:16;;;;;;;;;;;24.10;80.20;;;;;;5014388;28;20421;-70
2023/08/09 03:25:43;;;;;;;;;;;24.20;77.90;;;;;;5014255;28;20236;-70
2023/08/09 03:28:10;;;;;;;;;;;24.10;67.70;;;;;;5001220;28;20263;-70
2023/08/09 03:30:36;;;;;;;;;;;24.00;66.80;;;;;;5005628;28;20188;-70
2023/08/09 03:33:04;;;;;;;;;;;24.20;66.20;;;;;;5012427;28;19939;-70
2023/08/09 23:20:53;;;;;;;;;;;20.40;99.90;;;;;;4956663;28;19922;-68
2023/08/09 23:23:20;;;;;;;;;;;20.40;99.90;;;;;;4967433;28;19949;-68
2023/08/09 23:25:46;;;;;;;;;;;20.10;99.90;;;;;;4973445;28;19953;-70
2023/08/09 23:28:13;;;;;;;;;;;20.30;99.90;;;;;;4972387;28;19914;-69
2023/08/09 23:30:40;;;;;;;;;;;20.60;99.60;;;;;;4972811;28;19914;-70
2023/08/09 23:33:07;;;;;;;;;;;21.20;97.40;;;;;;4971920;28;19918;-70
2023/08/09 23:35:34;;;;;;;;;;;21.20;95.00;;;;;;4971932;28;20386;-70
2023/08/09 23:38:01;;;;;;;;;;;21.00;94.80;;;;;;4971463;28;19954;-69
2023/08/09 23:40:27;;;;;;;;;;;20.70;94.50;;;;;;4973018;28;19968;-69
2023/08/09 23:42:55;;;;;;;;;;;21.20;94.00;;;;;;4973045;28;19925;-69
2023/08/09 23:45:22;;;;;;;;;;;21.70;92.60;;;;;;4971483;28;24059;-69
2023/08/09 23:47:50;;;;;;;;;;;21.90;91.30;;;;;;4972749;28;20272;-69
2023/08/09 23:50:17;;;;;;;;;;;21.90;87.70;;;;;;4971950;28;19910;-70
2023/08/09 23:52:44;;;;;;;;;;;21.60;89.30;;;;;;4982523;28;19913;-69
2023/08/09 23:55:12;;;;;;;;;;;21.80;86.30;;;;;;4985511;28;24134;-69
2023/08/09 23:57:38;;;;;;;;;;;21.90;85.80;;;;;;4972588;28;24079;-69
